Thursday, September 20, 2018, 10:20 PM GMT
Back to Local

CWQV, Puinte Claveau

Location: , , Canada Lat: 48.267
Local Time: 10:20 PM GMT (22:20 GMT) Lon: -70.117
Time Zone: GMT Elev: 0 ft

Show me the last for .
Show Coded

Time T Td Feel RH Dir Speed Gust Alt SLP Vis Weather Sky Remarks
2018-09-20 22:00 57 - - 0 60° 2 - - - 0 None
2018-09-20 21:00 60 - - 0 270° 5 - - - 0 None
2018-09-20 20:00 60 - - 0 280° 5 - - - 0 None
2018-09-20 19:00 58 - - 0 200° 2 - - - 0 None
2018-09-20 18:00 55 - - 0 110° 3 - - - 0 None
2018-09-20 17:00 54 - - 0 140° 3 - - - 0 None
2018-09-20 16:00 52 - - 0 130° 2 - - - 0 None
2018-09-20 15:00 49 - - 0 110° 2 - - - 0 None
2018-09-20 14:00 49 - 47 0 100° 5 - - - 0 None
2018-09-20 13:00 48 - 46 0 100° 6 - - - 0 None
2018-09-20 12:00 46 - 43 0 70° 5 - - - 0 None
2018-09-20 11:00 47 - 45 0 40° 3 - - - 0 None
2018-09-20 10:00 47 - 44 0 90° 6 - - - 0 None
2018-09-20 09:00 46 - 45 0 170° 3 - - - 0 None
2018-09-20 08:00 47 - 44 0 120° 6 - - - 0 None
2018-09-20 07:00 46 - 41 0 90° 8 - - - 0 None
2018-09-20 06:00 47 - 45 0 110° 6 - - - 0 None
2018-09-20 05:00 47 - 45 0 70° 5 - - - 0 None
2018-09-20 04:00 47 - 46 0 140° 3 - - - 0 None
2018-09-20 03:00 47 - - 0 90° 2 - - - 0 None
2018-09-20 02:00 47 - - 0 60° 2 - - - 0 None
2018-09-20 01:00 47 - 45 0 60° 5 - - - 0 None
2018-09-20 00:00 47 - 42 0 90° 12 - - - 0 None
2018-09-19 23:00 48 - 43 0 90° 13 - - - 0 None

Support USWX by starting your Amazon purchase here.